createdAt,value
2023-01-25T00:02:11.459Z,9.70
2023-01-25T00:04:38.672Z,9.80
2023-01-25T00:07:05.912Z,9.63
2023-01-25T00:09:33.075Z,9.00
2023-01-25T00:12:00.410Z,10.00
2023-01-25T00:14:28.165Z,10.20
2023-01-25T00:16:55.418Z,10.43
2023-01-25T00:19:22.749Z,11.67
2023-01-25T00:21:50.361Z,11.20
2023-01-25T00:24:17.587Z,10.43
2023-01-25T00:26:44.883Z,10.90
2023-01-25T00:29:14.173Z,12.67
2023-01-25T00:31:54.370Z,12.53
2023-01-25T00:34:27.658Z,15.47
2023-01-25T00:37:02.157Z,13.17
2023-01-25T00:39:30.187Z,12.03
2023-01-25T00:41:57.983Z,12.67
2023-01-25T00:44:25.250Z,13.37
2023-01-25T00:46:52.536Z,11.07
2023-01-25T00:49:28.120Z,12.60
2023-01-25T00:51:55.673Z,14.80
2023-01-25T00:54:23.301Z,11.90
2023-01-25T00:56:51.356Z,12.43
2023-01-25T00:59:18.591Z,12.63
2023-01-25T01:01:46.299Z,13.90
2023-01-25T01:04:13.805Z,14.50
2023-01-25T01:06:42.602Z,12.30
2023-01-25T01:09:18.561Z,14.43
2023-01-25T01:11:45.830Z,12.07
2023-01-25T01:14:13.916Z,12.80
2023-01-25T01:16:41.644Z,12.20
2023-01-25T01:19:08.849Z,13.00
2023-01-25T01:21:36.006Z,12.13
2023-01-25T01:24:03.952Z,14.97
2023-01-25T01:26:31.127Z,12.87
2023-01-25T01:28:59.307Z,14.07
2023-01-25T01:31:27.179Z,12.73
2023-01-25T01:33:57.023Z,11.47
2023-01-25T01:36:28.330Z,13.47
2023-01-25T01:38:55.854Z,13.17
2023-01-25T01:41:26.990Z,13.37
2023-01-25T01:43:54.393Z,12.60
2023-01-25T01:46:38.720Z,13.13
2023-01-25T01:49:24.246Z,14.30
2023-01-25T01:52:01.565Z,12.67
2023-01-25T01:54:42.787Z,12.57
2023-01-25T01:57:25.651Z,12.67
2023-01-25T02:00:01.666Z,9.90
2023-01-25T02:02:28.994Z,10.27
2023-01-25T02:05:03.644Z,9.60
2023-01-25T02:07:37.707Z,10.30
2023-01-25T02:10:11.403Z,10.07
2023-01-25T02:12:39.558Z,10.60
2023-01-25T02:15:08.006Z,12.03
2023-01-25T02:17:38.912Z,10.27
2023-01-25T02:20:29.187Z,11.13
2023-01-25T02:23:16.748Z,8.93
2023-01-25T02:25:44.210Z,9.53
2023-01-25T02:28:28.151Z,9.83
2023-01-25T02:30:55.354Z,8.63
2023-01-25T02:33:27.362Z,9.97
2023-01-25T02:36:08.310Z,9.30
2023-01-25T02:38:45.639Z,8.90
2023-01-25T02:41:33.517Z,7.77
2023-01-25T02:44:05.475Z,8.20
2023-01-25T02:46:39.734Z,9.63
2023-01-25T02:49:09.706Z,8.73
2023-01-25T02:51:41.373Z,8.73
2023-01-25T02:54:11.393Z,8.57
2023-01-25T02:56:39.705Z,8.93
2023-01-25T02:59:08.357Z,9.37
2023-01-25T03:01:38.620Z,7.70
2023-01-25T03:04:07.101Z,9.73
2023-01-25T03:06:36.261Z,7.47
2023-01-25T03:09:10.297Z,8.10
2023-01-25T03:11:37.692Z,8.47
2023-01-25T03:14:05.269Z,8.37
2023-01-25T03:16:32.872Z,7.90
2023-01-25T03:19:00.177Z,10.13
2023-01-25T03:21:28.005Z,7.50
2023-01-25T03:24:00.480Z,7.60
2023-01-25T03:26:29.667Z,9.23
2023-01-25T03:28:57.337Z,7.17
2023-01-25T03:31:25.013Z,8.10
2023-01-25T03:33:52.356Z,7.80
2023-01-25T03:36:19.635Z,7.47
2023-01-25T03:38:48.035Z,8.07
2023-01-25T03:41:15.184Z,7.40
2023-01-25T03:43:44.001Z,8.40
2023-01-25T03:46:11.637Z,6.83
2023-01-25T03:48:42.259Z,5.97
2023-01-25T03:51:09.793Z,6.80
2023-01-25T03:53:37.046Z,6.73
2023-01-25T03:56:11.361Z,7.13
2023-01-25T03:58:40.132Z,7.07
2023-01-25T04:01:08.863Z,6.47
2023-01-25T04:03:36.351Z,6.97
2023-01-25T04:06:05.654Z,7.10
2023-01-25T04:08:33.538Z,8.50
2023-01-25T04:11:07.593Z,7.63
2023-01-25T04:13:36.412Z,7.40
2023-01-25T04:16:22.359Z,7.77
2023-01-25T04:18:49.538Z,6.37
2023-01-25T04:21:16.892Z,6.00
2023-01-25T04:23:44.409Z,6.17
2023-01-25T04:26:12.453Z,5.73
2023-01-25T04:28:41.174Z,5.43
2023-01-25T04:31:08.395Z,6.67
2023-01-25T04:33:35.754Z,8.43
2023-01-25T04:36:03.708Z,7.77
2023-01-25T04:38:30.930Z,8.60
2023-01-25T04:40:58.314Z,11.37
2023-01-25T04:43:26.808Z,7.97
2023-01-25T04:45:54.085Z,7.90
2023-01-25T04:48:21.270Z,8.97
2023-01-25T04:50:48.528Z,11.53
2023-01-25T04:53:15.797Z,19.43
2023-01-25T04:55:46.744Z,19.17
2023-01-25T04:58:14.963Z,11.37
2023-01-25T05:00:42.415Z,15.37
2023-01-25T05:03:09.729Z,13.30
2023-01-25T05:05:36.902Z,16.33
2023-01-25T05:08:04.336Z,11.17
2023-01-25T05:10:31.594Z,11.47
2023-01-25T05:12:58.802Z,12.77
2023-01-25T05:15:26.317Z,9.60
2023-01-25T05:17:53.523Z,10.13
2023-01-25T05:20:20.758Z,8.83
2023-01-25T05:22:47.967Z,8.77
2023-01-25T05:25:15.147Z,9.30
2023-01-25T05:27:42.313Z,9.50
2023-01-25T05:30:10.342Z,11.77
2023-01-25T05:32:37.526Z,9.77
2023-01-25T05:35:05.154Z,14.20
2023-01-25T05:37:32.429Z,12.47
2023-01-25T05:39:59.562Z,11.27
2023-01-25T05:42:26.802Z,16.47
2023-01-25T05:44:54.000Z,13.57
2023-01-25T05:47:21.225Z,13.67
2023-01-25T05:49:48.341Z,10.20
2023-01-25T05:52:17.140Z,10.27
2023-01-25T05:54:44.538Z,12.33
2023-01-25T05:57:14.231Z,11.10
2023-01-25T05:59:41.949Z,16.23
2023-01-25T06:02:09.161Z,21.97
2023-01-25T06:04:36.524Z,22.47
2023-01-25T06:07:03.701Z,23.57
2023-01-25T06:09:30.860Z,16.53
2023-01-25T06:11:58.101Z,15.43
2023-01-25T06:14:25.352Z,17.13
2023-01-25T06:16:52.743Z,15.20
2023-01-25T06:19:20.140Z,12.80
2023-01-25T06:21:47.368Z,10.43
2023-01-25T06:24:14.688Z,13.47
2023-01-25T06:26:41.911Z,12.73
2023-01-25T06:29:09.346Z,11.87
2023-01-25T06:31:36.688Z,15.20
2023-01-25T06:34:04.088Z,24.33
2023-01-25T06:36:31.283Z,59.20
2023-01-25T06:38:58.803Z,57.17
2023-01-25T06:41:26.570Z,22.67
2023-01-25T06:43:54.325Z,16.17
2023-01-25T06:46:24.716Z,20.40
2023-01-25T06:48:52.336Z,12.40
2023-01-25T06:51:19.769Z,37.90
2023-01-25T06:53:47.240Z,26.90
2023-01-25T06:56:21.989Z,16.57
2023-01-25T06:58:50.007Z,15.73
2023-01-25T07:01:22.191Z,20.30
2023-01-25T07:03:55.615Z,26.93
2023-01-25T07:06:25.362Z,14.63
2023-01-25T07:09:02.509Z,15.27
2023-01-25T07:11:30.101Z,26.77
2023-01-25T07:13:57.480Z,29.27
2023-01-25T07:16:24.735Z,23.73
2023-01-25T07:18:52.085Z,12.40
2023-01-25T07:21:22.988Z,24.23
2023-01-25T07:23:51.736Z,33.93
2023-01-25T07:26:25.832Z,41.50
2023-01-25T07:28:54.477Z,35.27
2023-01-25T07:31:22.377Z,61.63
2023-01-25T07:33:51.693Z,47.80
2023-01-25T07:36:19.833Z,38.13
2023-01-25T07:38:47.909Z,30.80
2023-01-25T07:41:15.711Z,20.33
2023-01-25T07:43:43.096Z,19.13
2023-01-25T07:46:13.343Z,22.57
2023-01-25T07:48:47.183Z,17.23
2023-01-25T07:51:16.352Z,19.13
2023-01-25T07:53:44.447Z,9.53
2023-01-25T07:56:12.928Z,10.97
2023-01-25T07:58:40.552Z,10.60
2023-01-25T08:01:13.342Z,9.80
2023-01-25T08:03:41.458Z,11.77
2023-01-25T08:06:08.743Z,12.87
2023-01-25T08:08:44.431Z,11.73
2023-01-25T08:11:18.321Z,14.13
2023-01-25T08:13:45.988Z,15.77
2023-01-25T08:16:19.565Z,18.27
2023-01-25T08:18:56.099Z,14.00
2023-01-25T08:21:26.754Z,11.20
2023-01-25T08:23:53.982Z,11.83
2023-01-25T08:26:21.485Z,13.63
2023-01-25T08:28:49.203Z,13.93
2023-01-25T08:31:24.732Z,16.03
2023-01-25T08:33:52.983Z,17.33
2023-01-25T08:36:22.299Z,24.03
2023-01-25T08:38:56.840Z,10.50
2023-01-25T08:41:26.289Z,10.53
2023-01-25T08:43:55.797Z,11.67
2023-01-25T08:46:25.867Z,10.50
2023-01-25T08:48:57.651Z,15.83
2023-01-25T08:51:26.295Z,13.00
2023-01-25T08:53:54.084Z,11.47
2023-01-25T08:56:21.816Z,9.97
2023-01-25T08:58:50.560Z,19.87
2023-01-25T09:01:20.068Z,19.23
2023-01-25T09:03:50.882Z,43.87
2023-01-25T09:06:18.872Z,62.13
2023-01-25T09:08:46.872Z,71.87
2023-01-25T09:11:22.595Z,33.50
2023-01-25T09:13:50.619Z,18.17
2023-01-25T09:16:23.983Z,11.93
2023-01-25T09:18:51.287Z,10.07
2023-01-25T09:21:19.779Z,10.13
2023-01-25T09:24:07.850Z,7.03
2023-01-25T09:26:40.240Z,9.50
2023-01-25T09:29:09.485Z,6.93
2023-01-25T09:31:39.549Z,8.73
2023-01-25T09:34:06.828Z,7.67
2023-01-25T09:36:34.056Z,6.70
2023-01-25T09:39:01.240Z,6.23
2023-01-25T09:42:14.765Z,8.77
2023-01-25T09:45:09.477Z,6.37
2023-01-25T09:48:17.727Z,5.73
2023-01-25T09:51:16.769Z,6.90
2023-01-25T09:53:51.285Z,7.63
2023-01-25T09:56:34.781Z,9.80
2023-01-25T09:59:13.963Z,5.40
2023-01-25T10:01:57.376Z,6.30
2023-01-25T10:04:37.911Z,5.93
2023-01-25T10:08:00.863Z,5.20
2023-01-25T10:10:39.829Z,7.10
2023-01-25T10:13:14.725Z,5.33
2023-01-25T10:15:58.630Z,5.80
2023-01-25T10:19:00.167Z,9.50
2023-01-25T10:21:36.647Z,5.47
2023-01-25T10:24:14.122Z,6.00
2023-01-25T10:26:49.057Z,6.30
2023-01-25T10:29:37.812Z,5.53
2023-01-25T10:32:29.648Z,5.63
2023-01-25T10:35:19.816Z,6.50
2023-01-25T10:37:54.080Z,6.37
2023-01-25T10:40:28.009Z,6.73
2023-01-25T10:43:17.049Z,7.77
2023-01-25T10:45:44.376Z,7.53
2023-01-25T10:48:29.977Z,6.57
2023-01-25T10:50:57.884Z,5.87
2023-01-25T10:53:30.287Z,6.03
2023-01-25T10:56:11.558Z,5.70
2023-01-25T10:58:41.701Z,6.17
2023-01-25T11:01:24.719Z,10.47
2023-01-25T11:03:52.394Z,5.60
2023-01-25T11:06:31.460Z,6.20
2023-01-25T11:09:23.003Z,5.70
2023-01-25T11:12:18.949Z,5.87
2023-01-25T11:15:03.335Z,9.10
2023-01-25T11:17:31.904Z,6.27
2023-01-25T11:20:25.715Z,7.67
2023-01-25T11:22:57.620Z,6.97
2023-01-25T11:25:34.890Z,6.53
2023-01-25T11:28:25.176Z,7.07
2023-01-25T11:30:54.266Z,6.13
2023-01-25T11:33:22.899Z,7.07
2023-01-25T11:36:29.152Z,6.90
2023-01-25T11:39:22.077Z,6.07
2023-01-25T11:42:13.924Z,7.00
2023-01-25T11:45:08.839Z,6.37
2023-01-25T11:48:39.123Z,6.13
2023-01-25T11:51:34.571Z,7.00
2023-01-25T11:54:29.376Z,6.00
2023-01-25T11:57:26.017Z,7.13
2023-01-25T12:00:05.738Z,6.33
2023-01-25T12:03:02.859Z,7.17
2023-01-25T12:05:42.210Z,6.67
2023-01-25T12:08:51.198Z,6.10
2023-01-25T12:11:27.141Z,5.90
2023-01-25T12:14:48.203Z,6.47
2023-01-25T12:17:26.251Z,6.20
2023-01-25T12:20:09.142Z,5.03
2023-01-25T12:23:21.860Z,5.70
2023-01-25T12:26:11.178Z,4.57
2023-01-25T12:29:01.159Z,4.37
2023-01-25T12:32:03.021Z,4.57
2023-01-25T12:34:39.946Z,5.10
2023-01-25T12:37:22.257Z,4.23
2023-01-25T12:40:07.092Z,3.20
2023-01-25T12:42:47.620Z,4.30
2023-01-25T12:45:25.507Z,3.20
2023-01-25T12:48:36.070Z,3.30
2023-01-25T12:51:03.552Z,4.23
2023-01-25T12:53:41.427Z,4.07
2023-01-25T12:56:28.482Z,5.57
2023-01-25T12:59:16.065Z,3.90
2023-01-25T13:02:15.514Z,3.73
2023-01-25T13:05:10.595Z,4.60
2023-01-25T13:08:12.606Z,8.20
2023-01-25T13:11:06.614Z,4.27
2023-01-25T13:13:33.841Z,5.80
2023-01-25T13:16:35.180Z,6.43
2023-01-25T13:19:02.850Z,6.97
2023-01-25T13:21:44.205Z,4.57
2023-01-25T13:24:20.932Z,11.43
2023-01-25T13:27:30.917Z,9.67
2023-01-25T13:30:31.305Z,7.50
2023-01-25T13:33:07.779Z,9.23
2023-01-25T13:35:40.463Z,13.47
2023-01-25T13:38:28.375Z,19.33
2023-01-25T13:41:15.815Z,15.37
2023-01-25T13:43:47.711Z,16.77
2023-01-25T13:46:19.275Z,25.33
2023-01-25T13:48:59.838Z,13.20
2023-01-25T13:51:33.784Z,15.90
2023-01-25T13:54:01.353Z,15.57
2023-01-25T13:56:35.451Z,13.43
2023-01-25T13:59:02.839Z,15.37
2023-01-25T14:01:34.123Z,17.97
2023-01-25T14:04:05.102Z,14.80
2023-01-25T14:06:40.523Z,17.37
2023-01-25T14:09:20.488Z,22.20
2023-01-25T14:12:01.807Z,15.40
2023-01-25T14:14:34.988Z,9.40
2023-01-25T14:17:16.763Z,21.43
2023-01-25T14:19:50.752Z,19.63
2023-01-25T14:22:30.066Z,15.77
2023-01-25T14:25:20.185Z,14.60
2023-01-25T14:27:55.874Z,11.80
2023-01-25T14:30:34.340Z,16.03
2023-01-25T14:33:17.318Z,19.90
2023-01-25T14:35:55.647Z,18.40
2023-01-25T14:38:35.683Z,18.40
2023-01-25T14:41:13.077Z,17.67
2023-01-25T14:43:43.456Z,12.50
2023-01-25T14:46:27.306Z,7.40
2023-01-25T14:49:26.941Z,7.43
2023-01-25T14:52:05.218Z,4.73
2023-01-25T14:54:44.643Z,7.30
2023-01-25T14:57:35.777Z,18.03
2023-01-25T15:00:18.846Z,21.80
2023-01-25T15:03:15.595Z,18.83
2023-01-25T15:05:47.333Z,16.27
2023-01-25T15:08:37.475Z,10.47
2023-01-25T15:11:04.969Z,14.43
2023-01-25T15:13:32.252Z,14.27
2023-01-25T15:16:03.354Z,13.20
2023-01-25T15:18:53.379Z,13.33
2023-01-25T15:21:28.874Z,15.17
2023-01-25T15:24:00.002Z,22.87
2023-01-25T15:26:30.874Z,22.50
2023-01-25T15:29:05.654Z,21.80
2023-01-25T15:31:37.315Z,20.97
2023-01-25T15:34:05.675Z,22.80
2023-01-25T15:36:33.890Z,26.73
2023-01-25T15:39:01.259Z,22.97
2023-01-25T15:41:28.526Z,23.87
2023-01-25T15:43:55.769Z,26.77
2023-01-25T15:46:26.512Z,28.20
2023-01-25T15:48:54.524Z,33.17
2023-01-25T15:51:22.611Z,25.53
2023-01-25T15:53:49.914Z,29.23
2023-01-25T15:56:21.652Z,18.83
2023-01-25T15:58:59.463Z,28.03
2023-01-25T16:01:29.731Z,16.67
2023-01-25T16:03:59.224Z,23.17
2023-01-25T16:06:35.676Z,35.53
2023-01-25T16:09:22.971Z,20.67
2023-01-25T16:11:57.090Z,19.17
2023-01-25T16:14:26.825Z,21.73
2023-01-25T16:16:54.300Z,19.73
2023-01-25T16:19:25.352Z,14.17
2023-01-25T16:21:52.986Z,12.53
2023-01-25T16:24:20.320Z,13.37
2023-01-25T16:27:01.252Z,14.50
2023-01-25T16:29:29.011Z,12.17
2023-01-25T16:31:57.757Z,12.47
2023-01-25T16:34:27.925Z,15.00
2023-01-25T16:37:05.640Z,20.23
2023-01-25T16:39:33.054Z,19.30
2023-01-25T16:42:00.384Z,10.77
2023-01-25T16:44:27.754Z,14.70
2023-01-25T16:46:55.127Z,17.93
2023-01-25T16:49:27.336Z,15.83
2023-01-25T16:51:55.141Z,18.03
2023-01-25T16:54:23.408Z,14.33
2023-01-25T16:56:53.368Z,17.50
2023-01-25T16:59:23.185Z,12.40
2023-01-25T17:01:51.148Z,14.53
2023-01-25T17:04:19.156Z,14.37
2023-01-25T17:06:49.949Z,17.50
2023-01-25T17:09:24.061Z,13.00
2023-01-25T17:11:54.046Z,13.83
2023-01-25T17:14:23.253Z,15.90
2023-01-25T17:16:51.016Z,12.80
2023-01-25T17:19:19.523Z,12.70
2023-01-25T17:21:47.088Z,7.00
2023-01-25T17:24:21.312Z,5.37
2023-01-25T17:26:51.442Z,5.83
2023-01-25T17:29:18.766Z,10.87
2023-01-25T17:31:46.106Z,6.40
2023-01-25T17:34:16.232Z,5.57
2023-01-25T17:36:45.554Z,5.87
2023-01-25T17:39:15.647Z,6.30
2023-01-25T17:41:45.327Z,5.23
2023-01-25T17:44:14.278Z,4.73
2023-01-25T17:46:41.537Z,4.47
2023-01-25T17:49:12.953Z,4.53
2023-01-25T17:51:40.276Z,5.30
2023-01-25T17:54:08.060Z,4.97
2023-01-25T17:56:37.866Z,4.23
2023-01-25T17:59:07.514Z,4.53
2023-01-25T18:01:35.862Z,4.60
2023-01-25T18:04:08.447Z,4.83
2023-01-25T18:06:36.225Z,4.93
2023-01-25T18:09:05.717Z,5.00
2023-01-25T18:11:36.397Z,4.70
2023-01-25T18:14:07.521Z,4.23
2023-01-25T18:16:38.290Z,5.33
2023-01-25T18:19:06.967Z,5.53
2023-01-25T18:21:35.356Z,4.70
2023-01-25T18:24:31.769Z,4.70
2023-01-25T18:27:22.012Z,5.40
2023-01-25T18:30:22.157Z,5.37
2023-01-25T18:32:49.780Z,5.03
2023-01-25T18:35:16.951Z,5.50
2023-01-25T18:37:44.209Z,5.37
2023-01-25T18:40:14.255Z,7.70
2023-01-25T18:42:41.625Z,6.40
2023-01-25T18:45:09.862Z,4.97
2023-01-25T18:47:37.228Z,4.70
2023-01-25T18:50:06.218Z,5.70
2023-01-25T18:52:36.232Z,4.80
2023-01-25T18:55:03.616Z,7.40
2023-01-25T18:57:31.099Z,9.33
2023-01-25T18:59:59.801Z,12.37
2023-01-25T19:02:27.423Z,13.20
2023-01-25T19:04:54.672Z,11.97
2023-01-25T19:07:23.801Z,8.47
2023-01-25T19:09:51.152Z,12.40
2023-01-25T19:12:18.529Z,8.80
2023-01-25T19:14:45.752Z,7.60
2023-01-25T19:17:13.035Z,7.60
2023-01-25T19:19:41.485Z,9.07
2023-01-25T19:22:08.676Z,6.33
2023-01-25T19:24:36.657Z,7.37
2023-01-25T19:27:04.118Z,9.20
2023-01-25T19:29:31.453Z,9.87
2023-01-25T19:31:58.726Z,9.60
2023-01-25T19:34:26.145Z,8.73
2023-01-25T19:36:53.675Z,7.20
2023-01-25T19:39:21.468Z,7.53
2023-01-25T19:41:51.794Z,6.90
2023-01-25T19:44:18.905Z,7.73
2023-01-25T19:46:46.305Z,13.57
2023-01-25T19:49:13.777Z,15.47
2023-01-25T19:51:43.639Z,12.37
2023-01-25T19:54:14.571Z,7.97
2023-01-25T19:56:44.297Z,7.83
2023-01-25T19:59:16.120Z,6.70
2023-01-25T20:01:45.227Z,6.83
2023-01-25T20:04:22.556Z,8.57
2023-01-25T20:06:51.573Z,7.00
2023-01-25T20:09:20.102Z,7.70
2023-01-25T20:11:47.579Z,6.50
2023-01-25T20:14:15.804Z,7.50
2023-01-25T20:16:43.563Z,7.63
2023-01-25T20:19:13.750Z,7.97
2023-01-25T20:21:41.205Z,7.30
2023-01-25T20:24:09.197Z,7.50
2023-01-25T20:26:39.971Z,5.90
2023-01-25T20:29:07.828Z,8.83
2023-01-25T20:31:38.547Z,8.43
2023-01-25T20:34:12.349Z,8.00
2023-01-25T20:36:40.975Z,8.43
2023-01-25T20:39:11.013Z,8.53
2023-01-25T20:41:38.318Z,8.97
2023-01-25T20:44:06.039Z,8.67
2023-01-25T20:46:33.528Z,8.80
2023-01-25T20:49:01.971Z,9.27
2023-01-25T20:51:29.671Z,9.73
2023-01-25T20:53:57.684Z,9.47
2023-01-25T20:56:25.595Z,8.50
2023-01-25T20:58:53.882Z,8.37
2023-01-25T21:01:26.027Z,8.47
2023-01-25T21:03:53.246Z,8.93
2023-01-25T21:06:20.794Z,6.97
2023-01-25T21:08:48.044Z,10.30
2023-01-25T21:11:15.699Z,8.50
2023-01-25T21:13:43.167Z,6.30
2023-01-25T21:16:12.722Z,6.67
2023-01-25T21:18:43.734Z,6.13
2023-01-25T21:21:24.719Z,9.47
2023-01-25T21:23:52.287Z,6.07
2023-01-25T21:26:31.975Z,6.60
2023-01-25T21:29:01.590Z,6.20
2023-01-25T21:31:36.010Z,6.40
2023-01-25T21:34:05.184Z,7.33
2023-01-25T21:36:33.267Z,6.40
2023-01-25T21:39:00.489Z,6.03
2023-01-25T21:41:31.546Z,7.40
2023-01-25T21:44:00.473Z,6.97
2023-01-25T21:46:28.943Z,10.40
2023-01-25T21:49:08.578Z,7.27
2023-01-25T21:51:35.754Z,6.43
2023-01-25T21:54:03.293Z,8.47
2023-01-25T21:56:30.549Z,8.03
2023-01-25T21:58:57.925Z,7.53
2023-01-25T22:01:25.202Z,6.37
2023-01-25T22:03:53.108Z,6.70
2023-01-25T22:06:20.451Z,8.37
2023-01-25T22:08:47.586Z,8.60
2023-01-25T22:11:15.183Z,6.33
2023-01-25T22:13:42.576Z,7.57
2023-01-25T22:16:11.920Z,5.60
2023-01-25T22:18:42.151Z,5.47
2023-01-25T22:21:22.660Z,5.80
2023-01-25T22:23:51.554Z,5.43
2023-01-25T22:26:22.069Z,5.00
2023-01-25T22:28:57.053Z,5.40
2023-01-25T22:31:30.095Z,5.83
2023-01-25T22:33:59.452Z,4.93
2023-01-25T22:36:30.114Z,4.77
2023-01-25T22:38:58.060Z,4.93
2023-01-25T22:41:29.520Z,5.03
2023-01-25T22:43:57.827Z,4.87
2023-01-25T22:46:27.926Z,4.83
2023-01-25T22:48:55.703Z,4.30
2023-01-25T22:51:28.532Z,4.23
2023-01-25T22:53:58.417Z,4.10
2023-01-25T22:56:34.770Z,4.37
2023-01-25T22:59:02.262Z,4.30
2023-01-25T23:01:33.471Z,5.23
2023-01-25T23:04:02.269Z,4.60
2023-01-25T23:06:33.016Z,4.60
2023-01-25T23:09:04.591Z,5.37
2023-01-25T23:11:36.321Z,4.57
2023-01-25T23:14:12.083Z,5.67
2023-01-25T23:16:39.237Z,6.20
2023-01-25T23:19:06.631Z,5.37
2023-01-25T23:21:34.084Z,7.90
2023-01-25T23:24:03.063Z,9.20
2023-01-25T23:26:32.664Z,9.93
2023-01-25T23:28:59.939Z,5.80
2023-01-25T23:31:27.335Z,5.60
2023-01-25T23:34:01.149Z,4.37
2023-01-25T23:36:35.291Z,6.07
2023-01-25T23:39:03.137Z,6.03
2023-01-25T23:41:32.343Z,7.10
2023-01-25T23:43:59.743Z,10.70
2023-01-25T23:46:27.681Z,15.43
2023-01-25T23:48:54.932Z,11.93
2023-01-25T23:51:22.221Z,8.00
2023-01-25T23:53:49.572Z,4.73
2023-01-25T23:56:21.690Z,4.07
2023-01-25T23:58:49.308Z,5.87
